Time;durP1;ratioP1;P1;durP2;ratioP2;P2;SDS_P1;SDS_P2;PMS_P1;PMS_P2;Temp;Humidity;BMP_temperature;BMP_pressure;BME280_temperature;BME280_humidity;BME280_pressure;Samples;Min_cycle;Max_cycle;Signal;HPM_P1;HPM_P2
2023/12/05 00:02:09;;;;;;;20.08;9.07;;;;;;;0.35;100.00;99736.16;5156846;28;20099;-75
2023/12/05 00:04:39;;;;;;;20.50;9.00;;;;;;;0.32;100.00;99730.19;5153685;28;20022;-75
2023/12/05 00:07:09;;;;;;;18.60;8.80;;;;;;;0.23;100.00;99728.53;5155148;28;20026;-74
2023/12/05 00:09:39;;;;;;;27.40;8.77;;;;;;;0.29;100.00;99725.94;5145338;28;20030;-75
2023/12/05 00:12:10;;;;;;;19.23;8.88;;;;;;;0.41;100.00;99724.97;5156849;28;20030;-75
2023/12/05 00:14:40;;;;;;;20.52;8.77;;;;;;;0.31;100.00;99713.06;5137792;28;20301;-76
2023/12/05 00:17:11;;;;;;;23.02;9.00;;;;;;;0.26;100.00;99714.81;5125845;28;20026;-73
2023/12/05 00:19:41;;;;;;;20.13;8.70;;;;;;;0.28;100.00;99702.81;5129186;28;20468;-76
2023/12/05 00:22:11;;;;;;;21.98;9.40;;;;;;;0.31;100.00;99711.38;5155971;28;20046;-73
2023/12/05 00:24:42;;;;;;;20.50;9.52;;;;;;;0.34;100.00;99706.19;5135747;28;20420;-77
2023/12/05 00:27:12;;;;;;;21.77;9.70;;;;;;;0.28;100.00;99706.25;5152822;28;20032;-77
2023/12/05 00:29:42;;;;;;;21.50;8.82;;;;;;;0.39;100.00;99703.59;5153273;28;20026;-77
2023/12/05 00:32:13;;;;;;;22.80;9.25;;;;;;;0.31;100.00;99693.38;5145906;28;20121;-72
2023/12/05 00:34:46;;;;;;;22.17;9.52;;;;;;;0.29;100.00;99699.38;5125465;28;20124;-72
2023/12/05 00:37:16;;;;;;;22.85;10.05;;;;;;;0.30;100.00;99695.94;5140427;28;20452;-77
2023/12/05 00:39:46;;;;;;;21.48;9.43;;;;;;;0.27;100.00;99694.28;5153534;28;20181;-77
2023/12/05 00:42:17;;;;;;;19.52;9.98;;;;;;;0.37;100.00;99692.47;5144277;28;20126;-75
2023/12/05 00:44:47;;;;;;;22.95;9.85;;;;;;;0.31;100.00;99690.81;5144523;28;20037;-76
2023/12/05 00:47:17;;;;;;;21.17;9.68;;;;;;;0.37;100.00;99682.19;5150248;28;20431;-76
2023/12/05 00:49:48;;;;;;;23.92;10.50;;;;;;;0.45;100.00;99680.41;5145274;28;20567;-76
2023/12/05 00:52:18;;;;;;;22.92;9.13;;;;;;;0.45;100.00;99686.41;5168151;22;20045;-72
2023/12/05 00:54:48;;;;;;;20.60;10.00;;;;;;;0.44;100.00;99694.97;5187277;28;20025;-73
2023/12/05 00:57:18;;;;;;;22.48;9.73;;;;;;;0.48;100.00;99701.78;5166450;28;20495;-73
2023/12/05 00:59:49;;;;;;;20.42;9.93;;;;;;;0.50;100.00;99694.91;5182360;28;20025;-71
2023/12/05 01:02:19;;;;;;;22.40;10.25;;;;;;;0.46;100.00;99688.09;5181121;28;20041;-72
2023/12/05 01:04:50;;;;;;;22.90;9.75;;;;;;;0.42;100.00;99683.84;5184790;28;20017;-71
2023/12/05 01:07:20;;;;;;;24.77;9.82;;;;;;;0.34;100.00;99677.94;5182506;28;20026;-71
2023/12/05 01:09:51;;;;;;;25.88;9.82;;;;;;;0.38;100.00;99678.75;5183954;28;20502;-72
2023/12/05 01:12:21;;;;;;;23.40;9.55;;;;;;;0.39;100.00;99681.28;5180058;28;20026;-73
2023/12/05 01:14:51;;;;;;;28.70;10.07;;;;;;;0.53;100.00;99673.47;5181124;28;20040;-72
2023/12/05 01:17:22;;;;;;;25.48;10.18;;;;;;;0.45;100.00;99670.13;5182587;28;20044;-73
2023/12/05 01:19:52;;;;;;;20.80;9.30;;;;;;;0.48;100.00;99670.06;5185411;28;20033;-72
2023/12/05 01:22:22;;;;;;;23.25;10.68;;;;;;;0.45;100.00;99664.97;5184960;28;20022;-73
2023/12/05 01:24:54;;;;;;;22.48;9.90;;;;;;;0.47;100.00;99669.25;5180131;28;20021;-72
2023/12/05 01:27:24;;;;;;;18.25;9.23;;;;;;;0.44;100.00;99669.28;5182714;28;20076;-71
2023/12/05 01:29:55;;;;;;;20.33;9.45;;;;;;;0.39;100.00;99671.03;5181291;28;20522;-73
2023/12/05 01:32:25;;;;;;;22.65;10.20;;;;;;;0.41;100.00;99664.16;5182331;28;20026;-73
2023/12/05 01:34:56;;;;;;;20.23;9.40;;;;;;;0.53;100.00;99664.03;5181724;28;20061;-73
2023/12/05 01:37:27;;;;;;;22.83;9.88;;;;;;;0.47;100.00;99663.25;5182622;28;20487;-72
2023/12/05 01:39:57;;;;;;;22.05;9.40;;;;;;;0.51;100.00;99663.19;5182016;28;20100;-72
2023/12/05 01:42:27;;;;;;;20.70;9.25;;;;;;;0.57;100.00;99663.13;5181432;28;20028;-73
2023/12/05 01:44:57;;;;;;;20.23;9.90;;;;;;;0.44;100.00;99663.28;5165550;28;20060;-73
2023/12/05 01:47:28;;;;;;;23.10;9.88;;;;;;;0.39;100.00;99660.75;5182516;28;20029;-73
2023/12/05 01:49:59;;;;;;;18.13;8.90;;;;;;;0.43;100.00;99659.00;5181591;28;20182;-73
2023/12/05 01:52:30;;;;;;;18.40;8.98;;;;;;;0.43;100.00;99656.44;5183544;28;20020;-73
2023/12/05 01:55:01;;;;;;;20.70;8.88;;;;;;;0.36;100.00;99658.22;5180948;28;20632;-73
2023/12/05 01:57:33;;;;;;;21.35;9.38;;;;;;;0.32;100.00;99653.09;5187659;28;20058;-72
2023/12/05 02:00:06;;;;;;;21.23;9.57;;;;;;;0.37;100.00;99657.34;5172919;28;20033;-73
2023/12/05 02:02:36;;;;;;;23.58;9.57;;;;;;;0.24;100.00;99649.78;5168651;28;20145;-72
2023/12/05 02:05:07;;;;;;;19.70;9.60;;;;;;;0.19;100.00;99652.38;5176283;28;20032;-73
2023/12/05 02:07:38;;;;;;;23.02;10.25;;;;;;;0.08;100.00;99654.19;5181215;28;20032;-73
2023/12/05 02:10:10;;;;;;;24.23;10.70;;;;;;;0.09;100.00;99645.66;5171317;28;20506;-72
2023/12/05 02:12:40;;;;;;;23.42;10.27;;;;;;;0.20;100.00;99651.50;5170972;28;20320;-72
2023/12/05 02:15:10;;;;;;;23.75;10.32;;;;;;;0.11;100.00;99643.91;5181066;28;20026;-72
2023/12/05 02:18:18;;;;;;;24.85;10.35;;;;;;;0.15;100.00;99650.72;5178172;28;20108;-72
2023/12/05 02:21:15;;;;;;;21.95;9.70;;;;;;;0.11;100.00;99653.31;5173352;28;20029;-71
2023/12/05 02:24:30;;;;;;;19.95;9.45;;;;;;;0.08;100.00;99645.66;5177495;28;20355;-72
2023/12/05 02:27:21;;;;;;;23.13;9.90;;;;;;;0.07;100.00;99642.22;5183938;28;20026;-72
2023/12/05 02:29:51;;;;;;;23.95;10.52;;;;;;;0.07;100.00;99642.22;5182549;28;20025;-73
2023/12/05 02:32:22;;;;;;;25.70;10.25;;;;;;;0.06;100.00;99630.22;5181093;28;20049;-72
2023/12/05 02:34:52;;;;;;;28.20;11.35;;;;;;;0.03;100.00;99627.69;5143088;28;20052;-73
2023/12/05 02:37:38;;;;;;;25.65;10.25;;;;;;;0.15;100.00;99635.31;5186507;28;20057;-73
2023/12/05 02:40:29;;;;;;;23.17;10.07;;;;;;;0.09;100.00;99629.38;5165052;28;20026;-72
2023/12/05 02:43:04;;;;;;;20.63;9.60;;;;;;;0.08;100.00;99627.66;5179993;28;20029;-72
2023/12/05 02:45:38;;;;;;;23.90;10.90;;;;;;;0.05;100.00;99631.09;5162560;28;20406;-73
2023/12/05 02:48:11;;;;;;;26.30;11.05;;;;;;;0.11;100.00;99618.22;5176924;28;20044;-71
2023/12/05 02:50:41;;;;;;;28.58;10.55;;;;;;;0.05;100.00;99614.88;5187749;28;20107;-72
2023/12/05 02:53:11;;;;;;;26.02;10.77;;;;;;;-0.03;100.00;99609.78;5154303;28;20671;-72
2023/12/05 02:55:42;;;;;;;24.92;10.77;;;;;;;-0.01;100.00;99609.75;5186982;28;20026;-72
2023/12/05 02:58:13;;;;;;;27.38;11.07;;;;;;;0.07;100.00;99608.81;5174909;28;20384;-72
2023/12/05 03:00:43;;;;;;;23.90;10.40;;;;;;;0.09;100.00;99604.56;5164296;28;20033;-73
2023/12/05 03:03:13;;;;;;;25.25;10.93;;;;;;;0.09;100.00;99601.13;5183700;28;20495;-73
2023/12/05 03:05:44;;;;;;;21.95;9.98;;;;;;;0.14;100.00;99601.91;5157955;28;20251;-72
2023/12/05 03:08:14;;;;;;;24.92;10.57;;;;;;;0.10;100.00;99601.13;5182742;28;20026;-72
2023/12/05 03:10:44;;;;;;;24.10;10.77;;;;;;;0.05;100.00;99594.31;5184601;28;20120;-72
2023/12/05 03:13:15;;;;;;;22.65;10.23;;;;;;;0.21;100.00;99594.13;5184832;28;20026;-72
2023/12/05 03:15:45;;;;;;;23.30;10.32;;;;;;;0.06;100.00;99604.56;5183988;28;20037;-72
2023/12/05 03:18:15;;;;;;;25.02;9.77;;;;;;;0.15;100.00;99603.63;5185971;28;20022;-72
2023/12/05 03:20:45;;;;;;;22.80;10.15;;;;;;;0.13;100.00;99595.94;5186785;28;20120;-73
2023/12/05 03:23:18;;;;;;;23.02;10.50;;;;;;;0.16;100.00;99598.47;5182976;28;20249;-72
2023/12/05 03:25:48;;;;;;;21.88;9.70;;;;;;;0.24;100.00;99588.97;5184492;28;20364;-73
2023/12/05 03:28:18;;;;;;;23.17;10.48;;;;;;;0.18;100.00;99588.22;5185243;28;20037;-72
2023/12/05 03:30:48;;;;;;;19.00;9.30;;;;;;;0.16;100.00;99593.34;5183049;28;20517;-71
2023/12/05 03:33:19;;;;;;;20.70;9.27;;;;;;;0.12;100.00;99581.41;5185488;28;20022;-72
2023/12/05 03:35:49;;;;;;;25.48;10.00;;;;;;;0.23;100.00;99582.13;5184008;28;20030;-73
2023/12/05 03:38:19;;;;;;;18.92;8.60;;;;;;;0.22;100.00;99582.16;5182039;28;20026;-72
2023/12/05 03:40:50;;;;;;;20.13;9.32;;;;;;;0.26;100.00;99578.69;5182538;28;20021;-72
2023/12/05 03:43:20;;;;;;;23.00;10.35;;;;;;;0.26;100.00;99579.56;5184121;28;20365;-72
2023/12/05 03:45:50;;;;;;;23.65;10.10;;;;;;;0.36;100.00;99590.59;5180902;28;20029;-73
2023/12/05 03:48:21;;;;;;;23.77;9.65;;;;;;;0.24;100.00;99583.81;5185346;28;20044;-72
2023/12/05 03:50:51;;;;;;;25.90;10.57;;;;;;;0.32;100.00;99587.19;5166149;28;20074;-72
2023/12/05 03:53:22;;;;;;;22.27;9.65;;;;;;;0.24;100.00;99591.53;5182600;28;20076;-73
2023/12/05 03:55:52;;;;;;;22.02;9.68;;;;;;;0.26;100.00;99586.41;5174185;28;20029;-73
2023/12/05 03:58:22;;;;;;;27.92;10.13;;;;;;;0.26;100.00;99582.13;5185688;28;20631;-72
2023/12/05 04:00:52;;;;;;;21.80;9.15;;;;;;;0.27;100.00;99581.25;5184126;28;20102;-73
2023/12/05 04:03:23;;;;;;;22.23;10.27;;;;;;;0.20;100.00;99574.47;5183818;28;20030;-73
2023/12/05 04:05:53;;;;;;;20.95;10.20;;;;;;;0.25;100.00;99575.25;5183218;28;20034;-73
2023/12/05 04:08:23;;;;;;;22.38;9.98;;;;;;;0.29;100.00;99576.94;5183328;28;20054;-73
2023/12/05 04:10:54;;;;;;;26.20;9.77;;;;;;;0.30;100.00;99582.91;5184515;28;20453;-72
2023/12/05 04:13:24;;;;;;;21.52;9.20;;;;;;;0.38;100.00;99576.84;5180923;28;20474;-71
2023/12/05 04:15:54;;;;;;;21.13;9.15;;;;;;;0.31;100.00;99590.63;5184377;28;20115;-74
2023/12/05 04:18:25;;;;;;;21.75;9.77;;;;;;;0.26;100.00;99579.56;5183369;28;20034;-72
2023/12/05 04:20:55;;;;;;;20.58;9.18;;;;;;;0.42;100.00;99578.50;5182130;28;20052;-73
2023/12/05 04:23:25;;;;;;;18.80;9.02;;;;;;;0.34;100.00;99582.88;5184054;28;20068;-72
2023/12/05 04:25:55;;;;;;;19.42;9.23;;;;;;;0.29;100.00;99581.22;5186486;28;20037;-73
2023/12/05 04:28:26;;;;;;;21.38;9.85;;;;;;;0.37;100.00;99574.28;5179209;28;20503;-73
2023/12/05 04:30:56;;;;;;;22.13;10.15;;;;;;;0.37;100.00;99570.00;5181672;28;20034;-72
2023/12/05 04:33:26;;;;;;;21.02;10.02;;;;;;;0.42;100.00;99582.78;5178463;28;20038;-72
2023/12/05 04:35:57;;;;;;;26.13;10.15;;;;;;;0.35;100.00;99581.16;5180680;28;20045;-73
2023/12/05 04:38:27;;;;;;;21.90;9.57;;;;;;;0.38;100.00;99573.44;5180058;28;20181;-73
2023/12/05 04:40:57;;;;;;;24.15;10.75;;;;;;;0.35;100.00;99574.31;5180673;28;20053;-73
2023/12/05 04:43:29;;;;;;;20.73;9.82;;;;;;;0.37;100.00;99575.13;5178834;28;20333;-73
2023/12/05 04:45:59;;;;;;;23.23;10.43;;;;;;;0.34;100.00;99571.72;5180933;28;20037;-73
2023/12/05 04:48:29;;;;;;;25.23;10.93;;;;;;;0.35;100.00;99576.88;5182070;28;20044;-72
2023/12/05 04:51:00;;;;;;;22.13;9.82;;;;;;;0.34;100.00;99575.16;5182295;28;20491;-73
2023/12/05 04:53:30;;;;;;;23.05;10.40;;;;;;;0.39;100.00;99575.97;5180508;28;20028;-73
2023/12/05 04:56:00;;;;;;;24.45;10.57;;;;;;;0.32;100.00;99576.91;5180851;28;20040;-73
2023/12/05 04:58:31;;;;;;;24.17;11.30;;;;;;;0.39;100.00;99577.69;5183585;28;20112;-73
2023/12/05 05:01:01;;;;;;;23.10;10.02;;;;;;;0.31;100.00;99564.94;5183667;28;20042;-73
2023/12/05 05:03:31;;;;;;;21.48;9.77;;;;;;;0.38;100.00;99579.41;5180241;28;20030;-73
2023/12/05 05:06:02;;;;;;;20.35;9.80;;;;;;;0.43;100.00;99575.09;5178653;28;20073;-73
2023/12/05 05:08:32;;;;;;;21.83;10.10;;;;;;;0.50;100.00;99571.56;5179540;28;20479;-73
2023/12/05 05:11:02;;;;;;;22.80;10.68;;;;;;;0.35;100.00;99566.59;5173361;28;20486;-73
2023/12/05 05:13:33;;;;;;;21.48;10.05;;;;;;;0.37;100.00;99575.13;5176200;28;20317;-73
2023/12/05 05:16:05;;;;;;;25.85;11.05;;;;;;;0.39;100.00;99570.81;5180602;28;20046;-73
2023/12/05 05:18:39;;;;;;;21.20;10.25;;;;;;;0.35;100.00;99563.19;5182112;28;20426;-73
2023/12/05 05:21:11;;;;;;;23.52;9.40;;;;;;;0.38;100.00;99565.72;5176772;28;20628;-73
2023/12/05 05:23:41;;;;;;;25.42;10.85;;;;;;;0.47;100.00;99568.16;5182874;28;20053;-72
2023/12/05 05:26:11;;;;;;;22.02;9.52;;;;;;;0.43;100.00;99556.22;5182648;28;20057;-73
2023/12/05 05:28:42;;;;;;;24.15;10.73;;;;;;;0.54;100.00;99562.09;5181807;28;20029;-72
2023/12/05 05:31:12;;;;;;;22.95;10.68;;;;;;;0.56;100.00;99558.63;5180033;28;20030;-72
2023/12/05 05:33:43;;;;;;;25.08;10.68;;;;;;;0.48;100.00;99563.03;5183033;28;20522;-73
2023/12/05 05:36:14;;;;;;;24.98;10.55;;;;;;;0.64;100.00;99554.25;5178012;28;20029;-72
2023/12/05 05:38:44;;;;;;;21.60;10.02;;;;;;;0.59;100.00;99558.59;5167252;28;20037;-73
2023/12/05 05:41:15;;;;;;;27.27;10.95;;;;;;;0.65;100.00;99560.22;5178975;28;20029;-71
2023/12/05 05:43:45;;;;;;;23.65;10.45;;;;;;;0.70;100.00;99558.47;5160802;28;20032;-73
2023/12/05 05:46:15;;;;;;;21.70;10.82;;;;;;;0.63;100.00;99556.84;5180174;28;20110;-72
2023/12/05 05:48:46;;;;;;;25.58;10.93;;;;;;;0.64;100.00;99561.09;5167779;28;20025;-73
2023/12/05 05:51:16;;;;;;;22.98;10.13;;;;;;;0.68;100.00;99561.06;5180764;28;20033;-73
2023/12/05 05:53:46;;;;;;;23.52;10.65;;;;;;;0.73;100.00;99554.13;5182051;28;20021;-72
2023/12/05 05:56:17;;;;;;;21.00;10.05;;;;;;;0.70;100.00;99559.31;5178384;28;20045;-73
2023/12/05 05:58:47;;;;;;;27.08;11.27;;;;;;;0.81;100.00;99557.47;5164123;28;20071;-73
2023/12/05 06:01:17;;;;;;;23.90;11.15;;;;;;;0.74;100.00;99566.09;5179537;28;20032;-72
2023/12/05 06:03:48;;;;;;;20.92;10.10;;;;;;;0.75;100.00;99557.53;5181579;28;20136;-73
2023/12/05 06:06:18;;;;;;;21.70;10.57;;;;;;;0.87;100.00;99559.13;5179984;28;20339;-72
2023/12/05 06:08:48;;;;;;;24.35;10.82;;;;;;;0.75;100.00;99569.53;5180991;28;20578;-73
2023/12/05 06:11:18;;;;;;;22.90;10.13;;;;;;;0.71;100.00;99558.44;5178296;28;20054;-72
2023/12/05 06:13:49;;;;;;;21.55;10.00;;;;;;;0.69;100.00;99562.75;5181643;28;20391;-72
2023/12/05 06:16:19;;;;;;;25.83;10.40;;;;;;;0.76;100.00;99561.78;5184567;28;20096;-71
2023/12/05 06:18:49;;;;;;;25.05;10.60;;;;;;;0.79;100.00;99561.78;5182672;28;20120;-73
2023/12/05 06:21:20;;;;;;;22.13;11.00;;;;;;;0.85;100.00;99559.13;5162791;28;20056;-71
2023/12/05 06:23:50;;;;;;;23.92;11.00;;;;;;;0.75;100.00;99561.84;5183805;28;20049;-73
2023/12/05 06:26:20;;;;;;;25.17;11.88;;;;;;;0.76;100.00;99558.38;5182192;28;20171;-73
2023/12/05 06:28:51;;;;;;;24.65;11.48;;;;;;;0.71;100.00;99561.00;5181996;28;20487;-73
2023/12/05 06:31:21;;;;;;;28.88;11.27;;;;;;;0.80;100.00;99554.91;5182349;28;20026;-73
2023/12/05 06:33:51;;;;;;;25.50;11.15;;;;;;;0.88;100.00;99565.94;5182835;28;20383;-72
2023/12/05 06:36:22;;;;;;;25.00;11.02;;;;;;;0.81;100.00;99559.16;5180495;28;20509;-73
2023/12/05 06:38:52;;;;;;;23.92;11.38;;;;;;;0.84;100.00;99554.84;5182290;28;20036;-73
2023/12/05 06:41:22;;;;;;;25.73;10.98;;;;;;;0.70;100.00;99548.19;5175732;28;20030;-73
2023/12/05 06:43:53;;;;;;;26.27;11.13;;;;;;;0.82;100.00;99548.88;5185048;28;20056;-73
2023/12/05 06:46:23;;;;;;;27.13;10.88;;;;;;;0.84;100.00;99546.28;5180985;28;20040;-72
2023/12/05 06:48:53;;;;;;;26.15;11.45;;;;;;;0.79;100.00;99548.06;5185887;28;20029;-72
2023/12/05 06:51:24;;;;;;;25.50;11.35;;;;;;;0.70;100.00;99559.31;5184306;28;20029;-73
2023/12/05 06:53:54;;;;;;;25.10;11.98;;;;;;;0.80;100.00;99550.63;5205325;22;20083;-74
2023/12/05 06:56:24;;;;;;;26.80;11.93;;;;;;;0.91;100.00;99553.88;5183457;28;20026;-73
2023/12/05 06:58:54;;;;;;;24.15;11.43;;;;;;;0.93;100.00;99549.56;5187761;28;20033;-76
2023/12/05 07:01:25;;;;;;;25.60;11.45;;;;;;;0.88;100.00;99563.38;5186391;28;20113;-76
2023/12/05 07:03:55;;;;;;;23.95;10.43;;;;;;;0.91;100.00;99564.16;5188272;28;20030;-75
2023/12/05 07:06:25;;;;;;;23.67;10.80;;;;;;;0.91;100.00;99558.19;5187187;28;20126;-76
2023/12/05 07:08:56;;;;;;;24.75;10.80;;;;;;;1.05;100.00;99562.25;5189243;28;20029;-76
2023/12/05 07:11:26;;;;;;;25.08;11.10;;;;;;;1.09;100.00;99563.91;5188489;28;20167;-77
2023/12/05 07:13:57;;;;;;;23.92;10.52;;;;;;;1.08;100.00;99559.66;5189123;28;20112;-75
2023/12/05 07:16:27;;;;;;;22.50;10.32;;;;;;;1.02;100.00;99564.88;5172028;28;20040;-77
2023/12/05 07:18:57;;;;;;;20.77;10.07;;;;;;;1.09;100.00;99561.34;5188658;28;20034;-76
2023/12/05 07:21:28;;;;;;;22.88;10.10;;;;;;;1.10;100.00;99567.34;5188121;28;20045;-75
2023/12/05 07:23:58;;;;;;;24.27;10.90;;;;;;;1.08;100.00;99572.50;5189322;28;20025;-77
2023/12/05 07:26:28;;;;;;;21.10;10.43;;;;;;;1.02;100.00;99567.47;5188053;28;20041;-75
2023/12/05 07:28:58;;;;;;;24.35;11.30;;;;;;;1.14;100.00;99572.44;5189330;28;20605;-76
2023/12/05 07:31:29;;;;;;;20.85;9.93;;;;;;;1.13;100.00;99570.75;5187909;28;20029;-76
2023/12/05 07:33:59;;;;;;;25.00;10.88;;;;;;;1.13;100.00;99564.72;5188580;28;20235;-77
2023/12/05 07:36:29;;;;;;;22.90;10.10;;;;;;;1.11;100.00;99567.34;5186512;28;20029;-76
2023/12/05 07:39:00;;;;;;;19.02;9.38;;;;;;;1.22;100.00;99575.75;5188563;28;20029;-76
2023/12/05 07:41:30;;;;;;;22.42;10.45;;;;;;;1.24;100.00;99580.88;5188670;28;20032;-76
2023/12/05 07:44:00;;;;;;;23.58;10.60;;;;;;;1.20;100.00;99576.66;5181131;28;20458;-77
2023/12/05 07:46:30;;;;;;;25.10;11.30;;;;;;;1.25;100.00;99585.97;5184321;28;20029;-77
2023/12/05 07:49:02;;;;;;;23.23;10.65;;;;;;;1.21;100.00;99573.22;5188060;28;20035;-77
2023/12/05 07:51:32;;;;;;;25.45;11.30;;;;;;;1.12;100.00;99575.91;5173465;28;20029;-76
2023/12/05 07:54:05;;;;;;;25.88;11.75;;;;;;;1.14;100.00;99577.59;5189388;28;20037;-75
2023/12/05 07:56:35;;;;;;;22.88;10.73;;;;;;;1.11;100.00;99582.78;5173918;28;20116;-76
2023/12/05 07:59:05;;;;;;;19.70;10.13;;;;;;;1.10;100.00;99582.78;5191897;28;20128;-77
2023/12/05 08:01:36;;;;;;;26.20;11.38;;;;;;;1.10;100.00;99583.63;5187210;28;20026;-76
2023/12/05 08:04:06;;;;;;;25.42;11.05;;;;;;;1.09;100.00;99586.22;5187342;28;20109;-75
2023/12/05 08:06:36;;;;;;;24.20;10.95;;;;;;;1.13;100.00;99578.47;5188011;28;20033;-76
2023/12/05 08:09:06;;;;;;;22.92;10.88;;;;;;;1.14;100.00;99587.88;5187206;28;20463;-75
2023/12/05 08:11:38;;;;;;;24.92;11.05;;;;;;;1.17;100.00;99585.25;5187395;28;20037;-76
2023/12/05 08:14:08;;;;;;;24.75;11.57;;;;;;;1.17;100.00;99584.38;5186557;28;20116;-76
2023/12/05 08:16:40;;;;;;;25.17;11.52;;;;;;;1.23;100.00;99589.47;5189581;28;20112;-77
2023/12/05 08:19:10;;;;;;;25.90;11.50;;;;;;;1.18;100.00;99588.66;5186548;28;20455;-76
2023/12/05 08:21:41;;;;;;;26.83;11.57;;;;;;;1.19;100.00;99595.50;5188210;28;20073;-76
2023/12/05 08:24:11;;;;;;;23.70;11.65;;;;;;;1.22;100.00;99593.75;5187010;28;20080;-76
2023/12/05 08:26:42;;;;;;;26.38;11.20;;;;;;;1.16;100.00;99588.69;5188710;28;20055;-76
2023/12/05 08:29:12;;;;;;;25.13;11.35;;;;;;;1.27;100.00;99594.53;5187354;28;20022;-76
2023/12/05 08:31:42;;;;;;;24.67;11.00;;;;;;;1.34;100.00;99585.88;5181926;28;20110;-76
2023/12/05 08:34:12;;;;;;;23.27;10.38;;;;;;;1.26;100.00;99587.69;5185238;28;20494;-77
2023/12/05 08:36:44;;;;;;;21.48;10.10;;;;;;;1.28;100.00;99591.09;5182722;28;20835;-76
2023/12/05 08:39:14;;;;;;;24.33;11.10;;;;;;;1.44;100.00;99581.44;5183286;28;20025;-76
2023/12/05 08:41:44;;;;;;;20.20;9.48;;;;;;;1.39;100.00;99596.09;5185466;28;20088;-76
2023/12/05 08:44:16;;;;;;;27.35;10.75;;;;;;;1.32;100.00;99582.47;5186514;28;20026;-75
2023/12/05 08:46:46;;;;;;;27.38;11.55;;;;;;;1.36;100.00;99586.69;5183530;28;20085;-77
2023/12/05 08:49:16;;;;;;;25.38;11.18;;;;;;;1.28;100.00;99582.53;5185170;28;20031;-77
2023/12/05 08:51:47;;;;;;;24.60;11.38;;;;;;;1.51;100.00;99591.59;5182598;28;20029;-76
2023/12/05 08:54:18;;;;;;;28.88;12.10;;;;;;;1.53;100.00;99591.56;5166944;28;20018;-76
2023/12/05 08:56:48;;;;;;;24.98;11.63;;;;;;;1.63;100.00;99594.00;5164110;28;20075;-76
2023/12/05 08:59:19;;;;;;;25.27;11.38;;;;;;;1.76;100.00;99597.22;5183233;28;20480;-76
2023/12/05 09:01:50;;;;;;;26.25;11.93;;;;;;;1.63;100.00;99593.13;5181029;28;20495;-76
2023/12/05 09:04:20;;;;;;;27.08;12.05;;;;;;;1.59;100.00;99589.75;5185430;28;20029;-77
2023/12/05 09:06:50;;;;;;;27.58;11.90;;;;;;;1.60;100.00;99603.47;5180214;28;20030;-75
2023/12/05 09:09:21;;;;;;;26.60;12.27;;;;;;;1.61;100.00;99608.59;5167794;28;20029;-73
2023/12/05 09:11:52;;;;;;;24.90;12.05;;;;;;;1.52;100.00;99603.59;5162379;28;20026;-75
2023/12/05 09:14:22;;;;;;;25.45;11.52;;;;;;;1.57;100.00;99613.84;5183296;28;20018;-73
2023/12/05 09:16:53;;;;;;;27.85;12.52;;;;;;;1.54;100.00;99611.31;5182734;28;20518;-76
2023/12/05 09:19:23;;;;;;;26.02;12.20;;;;;;;1.45;100.00;99611.44;5184019;28;20026;-75
2023/12/05 09:21:53;;;;;;;23.30;11.90;;;;;;;1.54;100.00;99607.00;5181724;28;20042;-75
2023/12/05 09:24:24;;;;;;;26.65;11.75;;;;;;;1.57;100.00;99604.38;5183617;28;20076;-74
2023/12/05 09:26:55;;;;;;;25.50;12.02;;;;;;;1.60;100.00;99614.63;5181437;28;20030;-76
2023/12/05 09:29:27;;;;;;;26.38;11.55;;;;;;;1.62;100.00;99612.91;5183030;28;20092;-75
2023/12/05 09:31:57;;;;;;;26.80;11.82;;;;;;;1.71;100.00;99622.19;5180336;28;20068;-77
2023/12/05 09:34:27;;;;;;;26.08;11.50;;;;;;;1.66;100.00;99618.81;5182457;28;20481;-73
2023/12/05 09:36:58;;;;;;;30.00;12.85;;;;;;;1.67;100.00;99616.25;5181446;28;20053;-76
2023/12/05 09:39:30;;;;;;;28.90;11.82;;;;;;;1.70;100.00;99616.19;5182036;28;20132;-73
2023/12/05 09:42:05;;;;;;;27.63;11.73;;;;;;;1.54;100.00;99619.88;5183443;28;20302;-75
2023/12/05 09:44:37;;;;;;;29.77;12.52;;;;;;;1.67;100.00;99617.94;5185300;28;20035;-76
2023/12/05 09:47:09;;;;;;;29.30;11.98;;;;;;;1.64;100.00;99623.16;5181461;28;20029;-76
2023/12/05 09:49:40;;;;;;;23.40;10.90;;;;;;;1.58;100.00;99616.38;5182659;28;20282;-74
2023/12/05 09:52:11;;;;;;;28.35;12.32;;;;;;;1.66;100.00;99622.25;5183107;28;20472;-76
2023/12/05 09:54:43;;;;;;;26.02;11.43;;;;;;;1.76;100.00;99620.41;5182814;28;20042;-76
2023/12/05 09:57:14;;;;;;;25.92;11.80;;;;;;;1.71;100.00;99632.50;5182922;28;20028;-76
2023/12/05 09:59:44;;;;;;;23.65;11.10;;;;;;;1.69;100.00;99619.63;5181996;28;20539;-75
2023/12/05 10:02:17;;;;;;;28.38;11.48;;;;;;;1.81;100.00;99611.72;5184860;28;20025;-74
2023/12/05 10:04:52;;;;;;;27.23;11.35;;;;;;;1.86;100.00;99610.75;5163220;28;20025;-76
2023/12/05 10:07:26;;;;;;;28.17;10.90;;;;;;;1.95;100.00;99612.31;5184567;28;20033;-74
2023/12/05 10:09:57;;;;;;;25.65;11.25;;;;;;;1.98;100.00;99609.72;5180247;28;20120;-75
2023/12/05 10:12:28;;;;;;;24.40;11.63;;;;;;;1.88;100.00;99605.59;5179255;28;20033;-76
2023/12/05 10:14:58;;;;;;;25.58;10.80;;;;;;;1.83;100.00;99607.41;5178398;28;20099;-75
2023/12/05 10:17:32;;;;;;;25.30;11.15;;;;;;;1.79;100.00;99614.31;5184552;28;20044;-74
2023/12/05 10:20:04;;;;;;;27.17;11.75;;;;;;;1.82;100.00;99609.13;5182466;28;20036;-75
2023/12/05 10:22:34;;;;;;;24.63;10.93;;;;;;;1.83;100.00;99607.41;5182658;28;20152;-75
2023/12/05 10:25:08;;;;;;;21.02;10.63;;;;;;;1.80;100.00;99605.72;5185653;28;20036;-76
2023/12/05 10:27:39;;;;;;;27.83;11.80;;;;;;;1.88;100.00;99601.31;5184986;28;20188;-75
2023/12/05 10:30:09;;;;;;;23.48;10.90;;;;;;;1.85;100.00;99608.22;5185879;28;20037;-74
2023/12/05 10:32:41;;;;;;;23.92;11.35;;;;;;;1.97;100.00;99608.03;5188627;28;20109;-75
2023/12/05 10:35:11;;;;;;;26.02;10.90;;;;;;;2.04;100.00;99605.31;5188935;28;20026;-75
2023/12/05 10:37:42;;;;;;;26.15;11.15;;;;;;;2.00;100.00;99610.53;5186985;28;20380;-76
2023/12/05 10:40:12;;;;;;;27.42;10.77;;;;;;;2.10;100.00;99601.75;5186337;28;20116;-75
2023/12/05 10:42:43;;;;;;;26.67;11.93;;;;;;;2.12;100.00;99600.00;5171162;28;21985;-73
2023/12/05 10:45:13;;;;;;;25.95;11.63;;;;;;;2.22;100.00;99598.97;5188494;28;20509;-74
2023/12/05 10:47:43;;;;;;;26.25;10.77;;;;;;;2.12;100.00;99594.84;5187848;28;20067;-76
2023/12/05 10:50:14;;;;;;;25.38;11.40;;;;;;;2.10;100.00;99594.91;5186587;28;20029;-76
2023/12/05 10:52:44;;;;;;;23.35;10.98;;;;;;;2.24;100.00;99592.06;5186921;28;20033;-75
2023/12/05 10:55:24;;;;;;;26.88;11.50;;;;;;;2.24;100.00;99585.19;5187796;28;20499;-76
2023/12/05 10:57:55;;;;;;;25.75;10.27;;;;;;;2.19;100.00;99588.72;5187801;28;20037;-75
2023/12/05 11:00:28;;;;;;;22.67;11.05;;;;;;;2.21;100.00;99584.41;5169552;28;20026;-74
2023/12/05 11:03:00;;;;;;;28.55;11.95;;;;;;;2.24;100.00;99582.63;5186719;28;20044;-74
2023/12/05 11:05:31;;;;;;;27.73;11.98;;;;;;;2.20;100.00;99580.13;5190817;28;20021;-75
2023/12/05 11:08:04;;;;;;;23.23;10.68;;;;;;;2.18;100.00;99574.16;5185389;28;20029;-76
2023/12/05 11:10:34;;;;;;;22.02;10.52;;;;;;;2.25;100.00;99579.16;5167820;28;20385;-73
2023/12/05 11:13:05;;;;;;;24.98;11.43;;;;;;;2.25;100.00;99581.75;5186566;28;20206;-76
2023/12/05 11:15:38;;;;;;;27.00;11.40;;;;;;;2.21;100.00;99579.25;5188745;28;20065;-74
2023/12/05 11:18:25;;;;;;;23.77;10.70;;;;;;;2.23;100.00;99585.22;5185797;28;20072;-74
2023/12/05 11:21:20;;;;;;;25.98;11.10;;;;;;;2.18;100.00;99574.97;5185555;28;20607;-76
2023/12/05 11:23:53;;;;;;;27.03;11.70;;;;;;;2.18;100.00;99580.13;5185507;28;20033;-76
2023/12/05 11:27:00;;;;;;;25.70;11.90;;;;;;;2.19;100.00;99581.00;5188040;28;20045;-73
2023/12/05 11:29:40;;;;;;;23.90;11.13;;;;;;;2.25;100.00;99586.91;5186211;28;20029;-75
2023/12/05 11:32:46;;;;;;;23.45;10.85;;;;;;;2.08;100.00;99581.19;5182871;28;20076;-75
2023/12/05 11:35:26;;;;;;;27.95;11.02;;;;;;;2.18;100.00;99594.75;5188897;28;20113;-75
2023/12/05 11:38:13;;;;;;;26.55;11.10;;;;;;;2.21;100.00;99586.97;5179801;28;20040;-76
2023/12/05 11:40:43;;;;;;;21.88;10.20;;;;;;;2.24;100.00;99589.50;5181307;28;21039;-76